Time;durP1;ratioP1;P1;durP2;ratioP2;P2;SDS_P1;SDS_P2;PMS_P1;PMS_P2;Temp;Humidity;BMP_temperature;BMP_pressure;BME280_temperature;BME280_humidity;BME280_pressure;Samples;Min_cycle;Max_cycle;Signal;HPM_P1;HPM_P2
2023/11/08 00:01:50;;;;;;;;;;;20.00;62.10;;;;;;1548279;76;1146;-60
2023/11/08 00:03:52;;;;;;;;;;;20.00;62.10;;;;;;1536114;76;703;-59
2023/11/08 00:05:54;;;;;;;;;;;20.00;62.10;;;;;;1535657;76;1538;-60
2023/11/08 00:07:56;;;;;;;;;;;20.00;62.20;;;;;;1539388;76;1905;-61
2023/11/08 00:09:58;;;;;;;;;;;20.00;62.10;;;;;;1543892;76;784;-59
2023/11/08 00:12:00;;;;;;;;;;;20.00;62.10;;;;;;1543365;76;1146;-61
2023/11/08 00:14:02;;;;;;;;;;;20.10;62.40;;;;;;1541549;76;695;-60
2023/11/08 00:16:05;;;;;;;;;;;20.00;62.40;;;;;;1544937;76;799;-60
2023/11/08 00:18:07;;;;;;;;;;;20.00;62.30;;;;;;1538182;76;677;-61
2023/11/08 00:20:10;;;;;;;;;;;20.00;62.40;;;;;;1537590;76;1592;-58
2023/11/08 00:22:12;;;;;;;;;;;20.00;62.30;;;;;;1541502;76;1131;-61
2023/11/08 00:24:14;;;;;;;;;;;20.00;62.40;;;;;;1543154;76;660;-60
2023/11/08 00:26:17;;;;;;;;;;;20.10;62.40;;;;;;1544364;76;695;-58
2023/11/08 00:28:19;;;;;;;;;;;20.00;62.30;;;;;;1540486;76;1912;-59
2023/11/08 00:30:21;;;;;;;;;;;20.00;62.40;;;;;;1545481;76;711;-59
2023/11/08 00:32:23;;;;;;;;;;;20.00;62.30;;;;;;1541388;76;1245;-60
2023/11/08 00:34:25;;;;;;;;;;;20.00;62.40;;;;;;1540883;76;1532;-59
2023/11/08 00:36:27;;;;;;;;;;;20.00;62.30;;;;;;1547042;76;700;-59
2023/11/08 00:38:29;;;;;;;;;;;20.00;62.30;;;;;;1545824;76;748;-57
2023/11/08 00:40:31;;;;;;;;;;;20.10;62.50;;;;;;1544253;76;749;-59
2023/11/08 00:42:33;;;;;;;;;;;20.00;62.40;;;;;;1535727;76;1151;-59
2023/11/08 00:44:35;;;;;;;;;;;20.00;62.40;;;;;;1543319;76;773;-60
2023/11/08 00:46:37;;;;;;;;;;;20.00;62.40;;;;;;1542303;76;771;-61
2023/11/08 00:48:39;;;;;;;;;;;20.10;62.50;;;;;;1538962;76;1916;-55
2023/11/08 00:50:41;;;;;;;;;;;20.00;62.50;;;;;;1547674;76;719;-60
2023/11/08 00:52:43;;;;;;;;;;;20.00;62.50;;;;;;1544038;76;1162;-60
2023/11/08 00:54:45;;;;;;;;;;;20.00;62.40;;;;;;1543185;76;747;-61
2023/11/08 00:56:47;;;;;;;;;;;20.00;62.50;;;;;;1536313;76;693;-60
2023/11/08 00:58:49;;;;;;;;;;;20.00;62.40;;;;;;1543930;76;690;-56
2023/11/08 01:00:51;;;;;;;;;;;20.00;62.50;;;;;;1546816;76;658;-58
2023/11/08 01:02:53;;;;;;;;;;;20.00;62.50;;;;;;1538919;75;1543;-59
2023/11/08 01:04:55;;;;;;;;;;;20.00;62.50;;;;;;1538079;76;766;-58
2023/11/08 01:06:57;;;;;;;;;;;20.00;62.50;;;;;;1546132;76;710;-56
2023/11/08 01:08:59;;;;;;;;;;;20.00;62.50;;;;;;1544639;76;1929;-60
2023/11/08 01:11:01;;;;;;;;;;;20.10;62.60;;;;;;1535456;76;748;-61
2023/11/08 01:13:06;;;;;;;;;;;20.00;62.50;;;;;;1538103;76;1108;-59
2023/11/08 01:15:06;;;;;;;;;;;20.00;62.40;;;;;;1541181;76;1038;-58
2023/11/08 01:17:10;;;;;;;;;;;20.00;62.50;;;;;;1542155;76;1643;-60
2023/11/08 01:19:12;;;;;;;;;;;20.00;62.40;;;;;;1549266;76;720;-58
2023/11/08 01:21:14;;;;;;;;;;;20.00;62.40;;;;;;1539482;76;685;-61
2023/11/08 01:23:16;;;;;;;;;;;20.00;62.40;;;;;;1540444;76;1067;-59
2023/11/08 01:25:17;;;;;;;;;;;20.00;62.40;;;;;;1545509;76;768;-58
2023/11/08 01:27:19;;;;;;;;;;;20.00;62.50;;;;;;1546439;76;934;-58
2023/11/08 01:29:21;;;;;;;;;;;20.00;62.30;;;;;;1538774;76;1930;-60
2023/11/08 01:31:23;;;;;;;;;;;20.00;62.30;;;;;;1544885;76;1723;-60
2023/11/08 01:33:25;;;;;;;;;;;20.00;62.40;;;;;;1543704;76;704;-60
2023/11/08 01:35:27;;;;;;;;;;;20.00;62.50;;;;;;1542417;76;601;-58
2023/11/08 01:37:30;;;;;;;;;;;19.90;62.40;;;;;;1546742;76;783;-57
2023/11/08 01:39:32;;;;;;;;;;;20.00;62.40;;;;;;1540853;76;712;-60
2023/11/08 01:41:34;;;;;;;;;;;19.90;62.40;;;;;;1544111;76;1149;-57
2023/11/08 01:43:37;;;;;;;;;;;20.00;62.30;;;;;;1547647;76;1484;-57
2023/11/08 01:45:39;;;;;;;;;;;20.00;62.30;;;;;;1542328;76;652;-60
2023/11/08 01:47:41;;;;;;;;;;;19.90;62.40;;;;;;1545295;76;762;-61
2023/11/08 01:49:42;;;;;;;;;;;20.00;62.30;;;;;;1542368;76;1920;-62
2023/11/08 01:51:45;;;;;;;;;;;19.90;62.30;;;;;;1547236;76;1170;-56
2023/11/08 01:53:51;;;;;;;;;;;20.00;62.30;;;;;;1536504;76;796;-58
2023/11/08 01:55:51;;;;;;;;;;;20.00;62.30;;;;;;1539948;76;1446;-59
2023/11/08 01:57:53;;;;;;;;;;;19.90;62.40;;;;;;1536440;76;1345;-58
2023/11/08 01:59:57;;;;;;;;;;;20.00;62.30;;;;;;1540692;76;673;-57
2023/11/08 02:01:59;;;;;;;;;;;20.00;62.30;;;;;;1539640;76;1642;-56
2023/11/08 02:04:01;;;;;;;;;;;20.00;62.30;;;;;;1538854;76;682;-57
2023/11/08 02:06:03;;;;;;;;;;;20.00;62.30;;;;;;1543280;76;782;-57
2023/11/08 02:08:05;;;;;;;;;;;20.00;62.30;;;;;;1542208;76;769;-56
2023/11/08 02:10:08;;;;;;;;;;;19.90;62.20;;;;;;1550076;76;1912;-60
2023/11/08 02:12:10;;;;;;;;;;;20.00;62.20;;;;;;1540366;76;1303;-57
2023/11/08 02:14:12;;;;;;;;;;;19.90;62.20;;;;;;1539683;76;687;-56
2023/11/08 02:16:14;;;;;;;;;;;20.00;62.30;;;;;;1542867;76;672;-57
2023/11/08 02:18:16;;;;;;;;;;;19.90;62.20;;;;;;1541222;76;689;-57
2023/11/08 02:20:19;;;;;;;;;;;19.90;62.20;;;;;;1540499;76;845;-57
2023/11/08 02:22:21;;;;;;;;;;;20.00;62.30;;;;;;1542192;76;1155;-60
2023/11/08 02:24:23;;;;;;;;;;;19.90;62.30;;;;;;1542414;76;793;-58
2023/11/08 02:26:25;;;;;;;;;;;20.00;62.30;;;;;;1540996;76;1569;-59
2023/11/08 02:28:27;;;;;;;;;;;20.00;62.30;;;;;;1535717;76;712;-58
2023/11/08 02:30:29;;;;;;;;;;;20.00;62.30;;;;;;1541527;76;1920;-57
2023/11/08 02:32:33;;;;;;;;;;;20.00;62.30;;;;;;1539704;76;1154;-58
2023/11/08 02:34:35;;;;;;;;;;;19.90;62.30;;;;;;1535694;76;727;-59
2023/11/08 02:36:37;;;;;;;;;;;19.90;62.30;;;;;;1537044;76;764;-59
2023/11/08 02:38:39;;;;;;;;;;;19.90;62.30;;;;;;1535885;76;816;-59
2023/11/08 02:40:41;;;;;;;;;;;19.90;62.30;;;;;;1549581;76;1160;-59
2023/11/08 02:42:44;;;;;;;;;;;20.00;62.30;;;;;;1537002;76;1159;-61
2023/11/08 02:44:46;;;;;;;;;;;20.00;62.30;;;;;;1540405;76;687;-60
2023/11/08 02:46:47;;;;;;;;;;;20.00;62.30;;;;;;1540364;76;676;-60
2023/11/08 02:48:56;;;;;;;;;;;20.00;62.30;;;;;;1539094;76;721;-61
2023/11/08 02:50:53;;;;;;;;;;;20.00;62.30;;;;;;1541363;76;1920;-60
2023/11/08 02:52:55;;;;;;;;;;;19.90;62.20;;;;;;1542757;76;1141;-59
2023/11/08 02:54:57;;;;;;;;;;;20.00;62.20;;;;;;1542064;76;1784;-60
2023/11/08 02:56:59;;;;;;;;;;;20.00;62.30;;;;;;1539884;76;602;-60
2023/11/08 02:59:01;;;;;;;;;;;20.00;62.30;;;;;;1544437;76;916;-58
2023/11/08 03:01:02;;;;;;;;;;;19.90;62.20;;;;;;1542994;76;761;-59
2023/11/08 03:03:04;;;;;;;;;;;19.90;62.20;;;;;;1547039;76;1126;-58
2023/11/08 03:05:09;;;;;;;;;;;19.90;62.30;;;;;;1545457;76;810;-60
2023/11/08 03:07:12;;;;;;;;;;;20.00;62.30;;;;;;1538902;76;706;-59
2023/11/08 03:09:14;;;;;;;;;;;19.90;62.30;;;;;;1543916;76;1921;-58
2023/11/08 03:11:15;;;;;;;;;;;20.00;62.30;;;;;;1545522;76;677;-60
2023/11/08 03:13:18;;;;;;;;;;;20.00;62.30;;;;;;1546481;76;1145;-59
2023/11/08 03:15:24;;;;;;;;;;;19.90;62.40;;;;;;1536811;76;695;-60
2023/11/08 03:17:24;;;;;;;;;;;19.90;62.40;;;;;;1549097;76;1260;-60
2023/11/08 03:19:25;;;;;;;;;;;20.00;62.30;;;;;;1538375;76;725;-60
2023/11/08 03:21:27;;;;;;;;;;;19.90;62.30;;;;;;1539213;76;1112;-58
2023/11/08 03:23:29;;;;;;;;;;;19.90;62.30;;;;;;1547412;76;1468;-59
2023/11/08 03:25:31;;;;;;;;;;;20.00;62.30;;;;;;1542867;76;700;-59
2023/11/08 03:27:33;;;;;;;;;;;19.90;62.40;;;;;;1537439;76;740;-60
2023/11/08 03:29:36;;;;;;;;;;;19.90;62.40;;;;;;1536460;76;1940;-59
2023/11/08 03:31:38;;;;;;;;;;;19.90;62.40;;;;;;1543701;76;1141;-59
2023/11/08 03:33:40;;;;;;;;;;;20.00;62.40;;;;;;1540999;76;726;-59
2023/11/08 03:35:42;;;;;;;;;;;20.00;62.30;;;;;;1542004;76;671;-60
2023/11/08 03:37:44;;;;;;;;;;;19.90;62.40;;;;;;1543612;76;1683;-59
2023/11/08 03:39:46;;;;;;;;;;;20.00;62.40;;;;;;1536109;76;789;-60
2023/11/08 03:41:48;;;;;;;;;;;20.00;62.30;;;;;;1537557;76;1101;-60
2023/11/08 03:43:50;;;;;;;;;;;19.90;62.30;;;;;;1547382;76;767;-60
2023/11/08 03:45:52;;;;;;;;;;;19.90;62.40;;;;;;1543217;76;715;-60
2023/11/08 03:47:53;;;;;;;;;;;19.90;62.40;;;;;;1542446;76;675;-61
2023/11/08 03:49:55;;;;;;;;;;;20.00;62.40;;;;;;1538910;76;1940;-61
2023/11/08 03:51:57;;;;;;;;;;;20.00;62.40;;;;;;1548989;76;1285;-60
2023/11/08 03:53:59;;;;;;;;;;;19.90;62.50;;;;;;1541769;76;694;-60
2023/11/08 03:56:01;;;;;;;;;;;19.90;62.40;;;;;;1540606;76;749;-61
2023/11/08 03:58:03;;;;;;;;;;;20.00;62.40;;;;;;1534518;76;756;-62
2023/11/08 04:00:06;;;;;;;;;;;19.90;62.40;;;;;;1539255;76;739;-61
2023/11/08 04:02:08;;;;;;;;;;;19.90;62.40;;;;;;1541947;76;1162;-60
2023/11/08 04:04:10;;;;;;;;;;;20.00;62.40;;;;;;1545685;76;1531;-60
2023/11/08 04:06:12;;;;;;;;;;;19.90;62.40;;;;;;1546023;76;801;-60
2023/11/08 04:08:14;;;;;;;;;;;20.00;62.40;;;;;;1538225;76;750;-60
2023/11/08 04:10:16;;;;;;;;;;;19.90;62.40;;;;;;1544705;76;1936;-59
2023/11/08 04:12:18;;;;;;;;;;;19.90;62.40;;;;;;1540069;76;1128;-60
2023/11/08 04:14:20;;;;;;;;;;;20.00;62.40;;;;;;1539317;76;677;-60
2023/11/08 04:16:22;;;;;;;;;;;20.00;62.40;;;;;;1543860;76;741;-60
2023/11/08 04:18:24;;;;;;;;;;;20.00;62.40;;;;;;1540544;76;1556;-59
2023/11/08 04:20:26;;;;;;;;;;;20.00;62.40;;;;;;1537900;76;712;-60
2023/11/08 04:22:28;;;;;;;;;;;20.00;62.40;;;;;;1540948;76;1128;-59
2023/11/08 04:24:29;;;;;;;;;;;20.00;62.40;;;;;;1543640;76;678;-60
2023/11/08 04:26:32;;;;;;;;;;;19.90;62.40;;;;;;1541012;76;792;-60
2023/11/08 04:28:36;;;;;;;;;;;20.00;62.40;;;;;;1545173;76;670;-58
2023/11/08 04:30:38;;;;;;;;;;;20.00;62.40;;;;;;1529451;76;1919;-61
2023/11/08 04:32:43;;;;;;;;;;;19.90;62.50;;;;;;1548717;76;1625;-59
2023/11/08 04:34:44;;;;;;;;;;;20.00;62.40;;;;;;1540346;76;979;-59
2023/11/08 04:36:47;;;;;;;;;;;19.90;62.40;;;;;;1539154;76;736;-59
2023/11/08 04:38:51;;;;;;;;;;;20.00;62.50;;;;;;1554808;76;709;-59
2023/11/08 04:40:52;;;;;;;;;;;19.90;62.40;;;;;;1540126;76;1764;-60
2023/11/08 04:42:54;;;;;;;;;;;19.90;62.50;;;;;;1546444;76;1163;-59
2023/11/08 04:44:56;;;;;;;;;;;20.00;62.60;;;;;;1545007;76;789;-59
2023/11/08 04:46:58;;;;;;;;;;;20.00;62.60;;;;;;1543217;76;1495;-59
2023/11/08 04:49:00;;;;;;;;;;;20.00;62.60;;;;;;1543611;76;749;-59
2023/11/08 04:51:02;;;;;;;;;;;19.90;62.70;;;;;;1539684;76;1937;-59
2023/11/08 04:53:05;;;;;;;;;;;19.90;62.70;;;;;;1541307;76;1147;-60
2023/11/08 04:55:07;;;;;;;;;;;19.90;62.60;;;;;;1539601;76;734;-60
2023/11/08 04:57:09;;;;;;;;;;;19.90;62.60;;;;;;1543135;76;814;-59
2023/11/08 04:59:12;;;;;;;;;;;19.90;62.70;;;;;;1540534;76;735;-59
2023/11/08 05:01:15;;;;;;;;;;;19.90;62.70;;;;;;1540878;76;1531;-61
2023/11/08 05:03:17;;;;;;;;;;;19.90;62.70;;;;;;1545690;76;1113;-60
2023/11/08 05:05:19;;;;;;;;;;;19.90;62.70;;;;;;1546906;76;719;-62
2023/11/08 05:07:21;;;;;;;;;;;19.90;62.70;;;;;;1542116;76;778;-60
2023/11/08 05:09:23;;;;;;;;;;;19.90;62.70;;;;;;1544538;76;683;-61
2023/11/08 05:11:25;;;;;;;;;;;19.90;62.70;;;;;;1538537;76;1947;-60
2023/11/08 05:13:27;;;;;;;;;;;19.90;62.90;;;;;;1544798;76;726;-59
2023/11/08 05:15:32;;;;;;;;;;;20.00;63.70;;;;;;1544405;76;1519;-60
2023/11/08 05:17:34;;;;;;;;;;;20.00;63.20;;;;;;1547620;75;699;-61
2023/11/08 05:19:36;;;;;;;;;;;20.00;62.90;;;;;;1550617;76;839;-58
2023/11/08 05:21:38;;;;;;;;;;;20.00;62.80;;;;;;1543754;75;1121;-61
2023/11/08 05:23:40;;;;;;;;;;;20.10;62.80;;;;;;1535062;76;852;-59
2023/11/08 05:25:42;;;;;;;;;;;20.00;62.70;;;;;;1545450;76;704;-59
2023/11/08 05:27:44;;;;;;;;;;;20.00;62.70;;;;;;1539452;76;714;-60
2023/11/08 05:29:46;;;;;;;;;;;20.00;63.10;;;;;;1546877;76;1551;-59
2023/11/08 05:31:48;;;;;;;;;;;20.00;63.50;;;;;;1545006;76;1948;-58
2023/11/08 05:33:50;;;;;;;;;;;20.00;63.90;;;;;;1552018;75;966;-59
2023/11/08 05:35:52;;;;;;;;;;;20.00;64.60;;;;;;1544467;76;756;-61
2023/11/08 05:37:54;;;;;;;;;;;20.00;65.10;;;;;;1552173;76;733;-58
2023/11/08 05:39:56;;;;;;;;;;;20.00;65.50;;;;;;1543277;76;806;-60
2023/11/08 05:41:58;;;;;;;;;;;20.00;65.80;;;;;;1547564;76;1099;-60
2023/11/08 05:44:00;;;;;;;;;;;20.10;65.80;;;;;;1538057;76;1525;-59
2023/11/08 05:46:02;;;;;;;;;;;19.90;65.80;;;;;;1510862;77;781;-58
2023/11/08 05:48:03;;;;;;;;;;;20.00;65.90;;;;;;1515129;77;809;-58
2023/11/08 05:50:09;;;;;;;;;;;20.00;65.90;;;;;;1522747;77;1936;-59
2023/11/08 05:52:09;;;;;;;;;;;19.90;65.90;;;;;;1503185;76;1844;-56
2023/11/08 05:54:12;;;;;;;;;;;20.00;65.90;;;;;;1544167;75;618;-56
2023/11/08 05:56:13;;;;;;;;;;;20.00;65.80;;;;;;1535284;75;765;-58
2023/11/08 05:58:16;;;;;;;;;;;20.00;65.80;;;;;;1515621;77;1178;-59
2023/11/08 06:00:17;;;;;;;;;;;20.00;65.80;;;;;;1539622;76;725;-59
2023/11/08 06:02:20;;;;;;;;;;;19.90;65.70;;;;;;1543128;76;1182;-60
2023/11/08 06:04:22;;;;;;;;;;;20.00;65.60;;;;;;1540784;76;906;-56
2023/11/08 06:06:24;;;;;;;;;;;20.10;65.80;;;;;;1548512;76;676;-60
2023/11/08 06:08:26;;;;;;;;;;;20.00;63.80;;;;;;1547055;76;673;-59
2023/11/08 06:10:28;;;;;;;;;;;19.90;64.50;;;;;;1540279;76;1942;-57
2023/11/08 06:12:30;;;;;;;;;;;19.90;65.10;;;;;;1542495;76;1697;-59
2023/11/08 06:14:32;;;;;;;;;;;20.00;65.20;;;;;;1545959;76;701;-59
2023/11/08 06:16:34;;;;;;;;;;;20.00;65.20;;;;;;1538619;76;782;-59
2023/11/08 06:18:36;;;;;;;;;;;19.90;65.30;;;;;;1549597;76;770;-59
2023/11/08 06:20:38;;;;;;;;;;;20.00;65.20;;;;;;1543515;76;733;-61
2023/11/08 06:22:40;;;;;;;;;;;19.90;65.20;;;;;;1548523;76;1128;-57
2023/11/08 06:24:42;;;;;;;;;;;20.00;65.10;;;;;;1544618;76;760;-59
2023/11/08 06:26:44;;;;;;;;;;;20.00;65.10;;;;;;1545814;76;1660;-58
2023/11/08 06:28:46;;;;;;;;;;;19.90;64.90;;;;;;1540963;76;700;-59
2023/11/08 06:30:47;;;;;;;;;;;19.90;65.00;;;;;;1542053;76;1943;-57
2023/11/08 06:32:49;;;;;;;;;;;19.90;65.00;;;;;;1545810;76;1141;-59
2023/11/08 06:34:51;;;;;;;;;;;19.90;64.90;;;;;;1540820;76;777;-59
2023/11/08 06:36:53;;;;;;;;;;;19.90;64.80;;;;;;1542971;76;733;-59
2023/11/08 06:38:55;;;;;;;;;;;19.90;64.80;;;;;;1547644;76;1192;-57
2023/11/08 06:40:57;;;;;;;;;;;20.00;64.80;;;;;;1543741;76;816;-59
2023/11/08 06:42:59;;;;;;;;;;;19.90;64.80;;;;;;1541682;76;1126;-59
2023/11/08 06:45:00;;;;;;;;;;;19.90;64.70;;;;;;1541292;76;689;-57
2023/11/08 06:47:02;;;;;;;;;;;19.90;64.70;;;;;;1543988;76;786;-59
2023/11/08 06:49:04;;;;;;;;;;;20.00;64.70;;;;;;1541461;76;761;-57
2023/11/08 06:51:06;;;;;;;;;;;19.90;64.70;;;;;;1550853;76;1935;-60
2023/11/08 06:53:08;;;;;;;;;;;19.90;64.60;;;;;;1524221;76;1606;-59
2023/11/08 06:55:10;;;;;;;;;;;19.90;64.70;;;;;;1506348;77;736;-58
2023/11/08 06:57:12;;;;;;;;;;;19.90;64.60;;;;;;1505252;77;666;-58
2023/11/08 06:59:14;;;;;;;;;;;19.90;64.60;;;;;;1508279;77;736;-58
2023/11/08 07:01:16;;;;;;;;;;;19.90;64.60;;;;;;1552890;75;745;-57
2023/11/08 07:03:18;;;;;;;;;;;19.90;64.50;;;;;;1558340;75;1187;-59
2023/11/08 07:05:20;;;;;;;;;;;19.90;64.60;;;;;;1552611;75;792;-56
2023/11/08 07:07:22;;;;;;;;;;;20.00;64.60;;;;;;1532782;76;1367;-59
2023/11/08 07:09:24;;;;;;;;;;;19.90;64.50;;;;;;1504904;77;691;-58
2023/11/08 07:11:27;;;;;;;;;;;19.90;64.50;;;;;;1541654;76;1934;-60
2023/11/08 07:13:29;;;;;;;;;;;19.90;64.50;;;;;;1547975;76;661;-58
2023/11/08 07:15:31;;;;;;;;;;;19.90;64.40;;;;;;1542325;76;855;-57
2023/11/08 07:17:33;;;;;;;;;;;19.90;64.50;;;;;;1546775;76;746;-59
2023/11/08 07:19:34;;;;;;;;;;;19.90;64.40;;;;;;1538108;76;724;-57
2023/11/08 07:21:36;;;;;;;;;;;19.90;64.40;;;;;;1540225;76;1545;-61
2023/11/08 07:23:38;;;;;;;;;;;19.90;64.40;;;;;;1539235;76;717;-60
2023/11/08 07:25:41;;;;;;;;;;;19.90;64.40;;;;;;1541261;76;662;-56
2023/11/08 07:27:43;;;;;;;;;;;19.90;64.40;;;;;;1551215;76;747;-58
2023/11/08 07:29:45;;;;;;;;;;;19.90;64.30;;;;;;1549882;76;745;-56
2023/11/08 07:31:47;;;;;;;;;;;19.90;64.40;;;;;;1543589;76;1936;-60
2023/11/08 07:33:49;;;;;;;;;;;19.90;64.30;;;;;;1548268;76;760;-59
2023/11/08 07:35:51;;;;;;;;;;;19.90;64.30;;;;;;1549482;76;1511;-59
2023/11/08 07:37:54;;;;;;;;;;;19.90;64.20;;;;;;1545568;76;757;-58
2023/11/08 07:39:57;;;;;;;;;;;19.80;64.20;;;;;;1543291;76;789;-57
2023/11/08 07:41:59;;;;;;;;;;;19.90;64.30;;;;;;1540557;76;1085;-59
2023/11/08 07:44:02;;;;;;;;;;;19.90;64.20;;;;;;1548519;76;737;-57
2023/11/08 07:46:05;;;;;;;;;;;19.90;64.20;;;;;;1551724;76;680;-56
2023/11/08 07:48:07;;;;;;;;;;;19.90;64.20;;;;;;1542527;76;697;-58
2023/11/08 07:50:11;;;;;;;;;;;19.90;64.20;;;;;;1545424;76;1528;-57
2023/11/08 07:52:13;;;;;;;;;;;19.80;64.10;;;;;;1546672;76;1912;-58
2023/11/08 07:54:15;;;;;;;;;;;19.90;64.20;;;;;;1547616;76;783;-58
2023/11/08 07:56:17;;;;;;;;;;;19.90;64.10;;;;;;1543707;76;788;-58
2023/11/08 07:58:19;;;;;;;;;;;19.90;64.20;;;;;;1550082;76;713;-60
2023/11/08 08:00:24;;;;;;;;;;;19.90;64.10;;;;;;1543169;76;849;-60
2023/11/08 08:02:25;;;;;;;;;;;19.80;64.10;;;;;;1541426;76;1687;-59
2023/11/08 08:04:27;;;;;;;;;;;19.90;64.10;;;;;;1544158;76;1553;-58
2023/11/08 08:06:29;;;;;;;;;;;19.80;64.00;;;;;;1546276;76;698;-57
2023/11/08 08:08:31;;;;;;;;;;;19.90;64.10;;;;;;1540325;76;700;-58
2023/11/08 08:10:33;;;;;;;;;;;19.90;64.10;;;;;;1539707;76;967;-60
2023/11/08 08:12:35;;;;;;;;;;;19.90;64.10;;;;;;1546465;76;1898;-60
2023/11/08 08:14:37;;;;;;;;;;;19.80;64.10;;;;;;1550257;76;917;-57
2023/11/08 08:16:42;;;;;;;;;;;19.90;64.10;;;;;;1549134;76;739;-57
2023/11/08 08:18:45;;;;;;;;;;;19.90;64.10;;;;;;1531567;76;1569;-58
2023/11/08 08:20:47;;;;;;;;;;;19.80;64.00;;;;;;1512578;77;723;-59
2023/11/08 08:22:51;;;;;;;;;;;19.90;64.00;;;;;;1510923;77;1121;-59
2023/11/08 08:24:53;;;;;;;;;;;19.80;63.90;;;;;;1504998;77;804;-59
2023/11/08 08:26:56;;;;;;;;;;;19.80;63.90;;;;;;1538345;76;628;-59
2023/11/08 08:28:58;;;;;;;;;;;19.90;64.00;;;;;;1544015;76;777;-57
2023/11/08 08:31:00;;;;;;;;;;;19.90;64.00;;;;;;1531697;76;1952;-60
2023/11/08 08:33:04;;;;;;;;;;;19.90;64.00;;;;;;1526956;76;1645;-57
2023/11/08 08:35:05;;;;;;;;;;;19.90;63.90;;;;;;1517986;77;1646;-56
2023/11/08 08:37:07;;;;;;;;;;;19.90;63.90;;;;;;1515339;76;724;-58
2023/11/08 08:39:09;;;;;;;;;;;19.90;63.90;;;;;;1528916;76;749;-57
2023/11/08 08:41:11;;;;;;;;;;;19.90;63.90;;;;;;1518669;77;743;-57
2023/11/08 08:43:13;;;;;;;;;;;19.80;63.80;;;;;;1533161;76;1055;-59
2023/11/08 08:45:15;;;;;;;;;;;19.90;63.80;;;;;;1538749;76;755;-59
2023/11/08 08:47:16;;;;;;;;;;;19.90;63.80;;;;;;1524726;76;1556;-58
2023/11/08 08:49:19;;;;;;;;;;;19.90;63.80;;;;;;1530166;76;791;-59
2023/11/08 08:51:20;;;;;;;;;;;19.80;63.70;;;;;;1545085;76;1924;-60
2023/11/08 08:53:22;;;;;;;;;;;19.90;63.80;;;;;;1532965;76;894;-56
2023/11/08 08:55:24;;;;;;;;;;;19.90;63.70;;;;;;1532713;76;727;-57
2023/11/08 08:57:26;;;;;;;;;;;19.80;63.70;;;;;;1549089;76;734;-57
2023/11/08 08:59:28;;;;;;;;;;;19.90;63.70;;;;;;1545455;76;803;-56
2023/11/08 09:01:30;;;;;;;;;;;19.90;63.70;;;;;;1539835;76;1162;-57
2023/11/08 09:03:32;;;;;;;;;;;19.90;63.70;;;;;;1552636;76;729;-56
2023/11/08 09:05:34;;;;;;;;;;;19.90;63.70;;;;;;1545160;76;784;-58
2023/11/08 09:07:36;;;;;;;;;;;19.80;63.70;;;;;;1540628;76;912;-58
2023/11/08 09:09:38;;;;;;;;;;;19.90;63.70;;;;;;1541846;76;797;-58
2023/11/08 09:11:42;;;;;;;;;;;19.90;63.70;;;;;;1546359;76;1939;-60
2023/11/08 09:13:44;;;;;;;;;;;19.90;63.70;;;;;;1554956;76;1523;-59
2023/11/08 09:15:46;;;;;;;;;;;19.90;63.70;;;;;;1543737;76;732;-58
2023/11/08 09:17:48;;;;;;;;;;;19.90;63.70;;;;;;1546271;76;685;-60
2023/11/08 09:19:51;;;;;;;;;;;19.90;63.60;;;;;;1545005;76;837;-57
2023/11/08 09:21:53;;;;;;;;;;;19.90;63.70;;;;;;1547187;76;1137;-60
2023/11/08 09:23:56;;;;;;;;;;;19.90;63.70;;;;;;1545605;76;789;-58
2023/11/08 09:25:58;;;;;;;;;;;19.90;63.70;;;;;;1544352;76;712;-58
2023/11/08 09:28:01;;;;;;;;;;;19.90;63.60;;;;;;1540007;76;1655;-59
2023/11/08 09:30:04;;;;;;;;;;;19.80;63.50;;;;;;1511187;77;720;-57
2023/11/08 09:32:06;;;;;;;;;;;19.80;63.50;;;;;;1515280;77;1919;-58
2023/11/08 09:34:08;;;;;;;;;;;19.90;63.60;;;;;;1514566;77;722;-58
2023/11/08 09:36:12;;;;;;;;;;;19.80;63.50;;;;;;1512683;77;745;-60
2023/11/08 09:38:14;;;;;;;;;;;19.80;63.50;;;;;;1517516;76;683;-60
2023/11/08 09:40:16;;;;;;;;;;;19.90;63.60;;;;;;1512492;77;738;-58
2023/11/08 09:42:21;;;;;;;;;;;19.90;63.50;;;;;;1529375;76;1502;-59
2023/11/08 09:44:22;;;;;;;;;;;19.90;63.60;;;;;;1553334;76;1649;-58
2023/11/08 09:46:24;;;;;;;;;;;19.80;63.50;;;;;;1544197;76;717;-59
2023/11/08 09:48:26;;;;;;;;;;;19.90;63.60;;;;;;1543801;76;779;-58
2023/11/08 09:50:28;;;;;;;;;;;19.80;63.50;;;;;;1546642;76;769;-56
2023/11/08 09:52:30;;;;;;;;;;;19.80;63.50;;;;;;1537604;76;1944;-58
2023/11/08 09:54:32;;;;;;;;;;;19.80;63.50;;;;;;1548250;76;662;-57
2023/11/08 09:56:34;;;;;;;;;;;19.90;63.50;;;;;;1536656;76;1553;-59
2023/11/08 09:58:36;;;;;;;;;;;19.80;63.40;;;;;;1542846;76;741;-57
2023/11/08 10:00:40;;;;;;;;;;;19.90;63.50;;;;;;1539422;76;802;-56
2023/11/08 10:02:42;;;;;;;;;;;19.80;63.40;;;;;;1538352;76;1194;-58
2023/11/08 10:04:44;;;;;;;;;;;19.90;63.40;;;;;;1547603;76;755;-60
2023/11/08 10:06:46;;;;;;;;;;;19.80;63.30;;;;;;1548474;76;728;-59
2023/11/08 10:08:48;;;;;;;;;;;19.80;63.30;;;;;;1544602;76;739;-59
2023/11/08 10:10:51;;;;;;;;;;;19.90;63.40;;;;;;1542314;76;1596;-58
2023/11/08 10:13:00;;;;;;;;;;;19.90;63.30;;;;;;1551226;76;1920;-58
2023/11/08 10:15:03;;;;;;;;;;;20.50;63.50;;;;;;1537521;76;1646;-55
2023/11/08 10:17:06;;;;;;;;;;;19.90;63.20;;;;;;1542456;76;817;-57
2023/11/08 10:19:09;;;;;;;;;;;19.80;63.10;;;;;;1540486;76;651;-57
2023/11/08 10:21:18;;;;;;;;;;;19.90;63.20;;;;;;1535607;76;728;-57
2023/11/08 10:23:26;;;;;;;;;;;19.90;63.20;;;;;;1536221;76;1116;-56
2023/11/08 10:25:29;;;;;;;;;;;19.80;63.10;;;;;;1545547;76;1574;-57
2023/11/08 10:27:32;;;;;;;;;;;19.90;63.10;;;;;;1539520;76;732;-58
2023/11/08 10:29:35;;;;;;;;;;;19.80;63.00;;;;;;1541020;76;694;-59
2023/11/08 10:31:38;;;;;;;;;;;19.90;63.10;;;;;;1539224;76;1146;-59
2023/11/08 10:33:42;;;;;;;;;;;19.90;63.00;;;;;;1523726;76;1938;-56
2023/11/08 10:35:45;;;;;;;;;;;19.90;63.00;;;;;;1529645;75;1605;-59
2023/11/08 10:37:48;;;;;;;;;;;19.90;63.00;;;;;;1517225;77;754;-57
2023/11/08 10:39:52;;;;;;;;;;;19.90;63.00;;;;;;1526227;76;1346;-58
2023/11/08 10:41:53;;;;;;;;;;;19.90;63.00;;;;;;1523598;76;1142;-58
2023/11/08 10:44:07;;;;;;;;;;;19.80;62.90;;;;;;1544835;75;784;-58
2023/11/08 10:46:10;;;;;;;;;;;19.90;62.90;;;;;;1526159;76;1894;-58
2023/11/08 10:48:12;;;;;;;;;;;19.90;62.90;;;;;;1527570;76;597;-57
2023/11/08 10:50:15;;;;;;;;;;;19.80;62.80;;;;;;1534094;76;660;-58
2023/11/08 10:52:20;;;;;;;;;;;19.90;62.90;;;;;;1538391;76;1928;-56
2023/11/08 10:54:22;;;;;;;;;;;19.80;62.80;;;;;;1531209;76;669;-56
2023/11/08 10:56:25;;;;;;;;;;;19.90;62.80;;;;;;1510369;77;635;-59
2023/11/08 10:58:35;;;;;;;;;;;19.90;62.90;;;;;;1541030;76;723;-58
2023/11/08 11:00:37;;;;;;;;;;;19.90;62.90;;;;;;1530268;76;685;-59
2023/11/08 11:02:47;;;;;;;;;;;19.90;63.20;;;;;;1541973;76;1165;-58
2023/11/08 11:04:50;;;;;;;;;;;19.90;63.00;;;;;;1540425;76;762;-58
2023/11/08 11:06:52;;;;;;;;;;;19.90;62.80;;;;;;1541450;76;1460;-59
2023/11/08 11:08:54;;;;;;;;;;;19.90;62.80;;;;;;1543777;76;722;-58
2023/11/08 11:10:56;;;;;;;;;;;19.90;62.80;;;;;;1543072;76;671;-58
2023/11/08 11:13:09;;;;;;;;;;;19.90;62.70;;;;;;1545597;76;1932;-58
2023/11/08 11:15:11;;;;;;;;;;;20.00;62.70;;;;;;1551725;76;1608;-59
2023/11/08 11:17:27;;;;;;;;;;;19.90;62.90;;;;;;1543467;76;778;-59
2023/11/08 11:19:29;;;;;;;;;;;19.90;62.80;;;;;;1553048;76;747;-56
2023/11/08 11:21:44;;;;;;;;;;;20.00;62.80;;;;;;1545217;76;1599;-57
2023/11/08 11:23:46;;;;;;;;;;;20.00;62.70;;;;;;1549494;76;1691;-58
2023/11/08 11:25:48;;;;;;;;;;;20.00;62.60;;;;;;1538041;76;732;-56
2023/11/08 11:27:50;;;;;;;;;;;20.00;62.50;;;;;;1541999;76;710;-57
2023/11/08 11:29:54;;;;;;;;;;;20.10;62.60;;;;;;1529080;76;707;-58
2023/11/08 11:31:56;;;;;;;;;;;20.10;62.60;;;;;;1539176;76;1497;-57
2023/11/08 11:33:58;;;;;;;;;;;20.10;62.50;;;;;;1541488;76;1935;-59
2023/11/08 11:36:00;;;;;;;;;;;20.10;62.50;;;;;;1545149;76;1537;-58
2023/11/08 11:38:13;;;;;;;;;;;20.10;62.50;;;;;;1543884;76;801;-57
2023/11/08 11:40:16;;;;;;;;;;;20.20;62.40;;;;;;1542895;76;651;-56
2023/11/08 11:42:18;;;;;;;;;;;20.20;62.40;;;;;;1549927;76;1153;-58
2023/11/08 11:44:20;;;;;;;;;;;20.20;62.30;;;;;;1541840;76;786;-57
2023/11/08 11:46:22;;;;;;;;;;;20.20;62.30;;;;;;1526772;76;971;-59
2023/11/08 11:48:24;;;;;;;;;;;20.20;62.30;;;;;;1541993;76;1497;-58
2023/11/08 11:50:27;;;;;;;;;;;20.20;62.30;;;;;;1508431;77;1220;-58
2023/11/08 11:52:29;;;;;;;;;;;20.30;62.40;;;;;;1560390;74;1924;-56
2023/11/08 11:54:31;;;;;;;;;;;20.20;62.20;;;;;;1558641;74;706;-59
2023/11/08 11:56:33;;;;;;;;;;;20.20;62.20;;;;;;1560368;74;692;-60
2023/11/08 11:58:38;;;;;;;;;;;20.20;62.20;;;;;;1564179;74;735;-58
2023/11/08 12:00:40;;;;;;;;;;;20.30;62.20;;;;;;1560422;74;700;-59
2023/11/08 12:02:42;;;;;;;;;;;20.30;62.20;;;;;;1560482;74;1599;-59
2023/11/08 12:04:44;;;;;;;;;;;20.20;62.10;;;;;;1559738;74;778;-59
2023/11/08 12:06:46;;;;;;;;;;;20.20;62.10;;;;;;1564537;74;757;-60
2023/11/08 12:08:48;;;;;;;;;;;20.30;62.20;;;;;;1537603;75;722;-60
2023/11/08 12:10:50;;;;;;;;;;;20.30;62.30;;;;;;1557782;74;747;-59